sensor_id;sensor_type;location;lat;lon;timestamp;pressure;altitude;pressure_sealevel;temperature;humidity
39363;BME280;25088;43.238;23.110;2023-04-19T00:01:48;96209.28;;;9.77;100.00
39363;BME280;25088;43.238;23.110;2023-04-19T00:04:13;96214.47;;;9.78;100.00
39363;BME280;25088;43.238;23.110;2023-04-19T00:06:39;96220.72;;;9.79;100.00
39363;BME280;25088;43.238;23.110;2023-04-19T00:09:06;96213.91;;;9.76;100.00
39363;BME280;25088;43.238;23.110;2023-04-19T00:11:32;96220.94;;;9.72;100.00
39363;BME280;25088;43.238;23.110;2023-04-19T00:13:57;96214.69;;;9.72;100.00
39363;BME280;25088;43.238;23.110;2023-04-19T00:16:23;96206.41;;;9.62;100.00
39363;BME280;25088;43.238;23.110;2023-04-19T00:18:48;96212.81;;;9.77;100.00
39363;BME280;25088;43.238;23.110;2023-04-19T00:21:14;96222.09;;;9.76;100.00
39363;BME280;25088;43.238;23.110;2023-04-19T00:23:39;96207.09;;;9.79;100.00
39363;BME280;25088;43.238;23.110;2023-04-19T00:26:05;96206.69;;;9.92;100.00
39363;BME280;25088;43.238;23.110;2023-04-19T00:28:32;96206.19;;;9.95;100.00
39363;BME280;25088;43.238;23.110;2023-04-19T00:30:57;96204.56;;;9.99;100.00
39363;BME280;25088;43.238;23.110;2023-04-19T00:33:23;96205.59;;;9.93;100.00
39363;BME280;25088;43.238;23.110;2023-04-19T00:35:48;96210.16;;;9.82;100.00
39363;BME280;25088;43.238;23.110;2023-04-19T00:38:13;96210.81;;;9.95;100.00
39363;BME280;25088;43.238;23.110;2023-04-19T00:40:39;96210.78;;;9.90;100.00
39363;BME280;25088;43.238;23.110;2023-04-19T00:43:04;96210.47;;;9.86;100.00
39363;BME280;25088;43.238;23.110;2023-04-19T00:45:31;96209.50;;;9.70;100.00
39363;BME280;25088;43.238;23.110;2023-04-19T00:47:57;96212.34;;;9.58;100.00
39363;BME280;25088;43.238;23.110;2023-04-19T00:50:22;96197.50;;;9.44;100.00
39363;BME280;25088;43.238;23.110;2023-04-19T00:52:48;96214.84;;;9.60;100.00
39363;BME280;25088;43.238;23.110;2023-04-19T00:55:13;96195.50;;;9.62;100.00
39363;BME280;25088;43.238;23.110;2023-04-19T00:57:39;96205.41;;;9.73;100.00
39363;BME280;25088;43.238;23.110;2023-04-19T01:00:05;96208.00;;;9.84;100.00
39363;BME280;25088;43.238;23.110;2023-04-19T01:02:33;96208.56;;;9.87;100.00
39363;BME280;25088;43.238;23.110;2023-04-19T01:04:59;96198.19;;;9.89;100.00
39363;BME280;25088;43.238;23.110;2023-04-19T01:07:24;96200.47;;;9.97;100.00
39363;BME280;25088;43.238;23.110;2023-04-19T01:09:50;96188.41;;;9.93;100.00
39363;BME280;25088;43.238;23.110;2023-04-19T01:12:16;96195.31;;;10.00;100.00
39363;BME280;25088;43.238;23.110;2023-04-19T01:14:41;96188.00;;;10.06;100.00
39363;BME280;25088;43.238;23.110;2023-04-19T01:17:08;96180.09;;;10.04;100.00
39363;BME280;25088;43.238;23.110;2023-04-19T01:19:35;96181.22;;;10.14;100.00
39363;BME280;25088;43.238;23.110;2023-04-19T01:22:00;96177.38;;;10.09;100.00
39363;BME280;25088;43.238;23.110;2023-04-19T01:24:28;96170.84;;;10.10;100.00
39363;BME280;25088;43.238;23.110;2023-04-19T01:26:54;96159.00;;;9.95;100.00
39363;BME280;25088;43.238;23.110;2023-04-19T01:29:19;96176.22;;;10.00;100.00
39363;BME280;25088;43.238;23.110;2023-04-19T01:31:49;96178.28;;;9.88;100.00
39363;BME280;25088;43.238;23.110;2023-04-19T01:34:20;96181.19;;;9.76;100.00
39363;BME280;25088;43.238;23.110;2023-04-19T01:36:47;96169.19;;;9.77;100.00
39363;BME280;25088;43.238;23.110;2023-04-19T01:39:13;96165.06;;;9.70;100.00
39363;BME280;25088;43.238;23.110;2023-04-19T01:41:38;96168.06;;;9.73;100.00
39363;BME280;25088;43.238;23.110;2023-04-19T01:44:04;96164.47;;;9.68;100.00
39363;BME280;25088;43.238;23.110;2023-04-19T01:46:29;96168.25;;;9.62;100.00
39363;BME280;25088;43.238;23.110;2023-04-19T01:48:55;96147.22;;;9.57;100.00
39363;BME280;25088;43.238;23.110;2023-04-19T01:51:20;96138.50;;;9.55;100.00
39363;BME280;25088;43.238;23.110;2023-04-19T01:53:48;96154.03;;;9.59;100.00
39363;BME280;25088;43.238;23.110;2023-04-19T01:56:19;96143.72;;;9.62;100.00
39363;BME280;25088;43.238;23.110;2023-04-19T01:58:46;96142.84;;;9.56;100.00
39363;BME280;25088;43.238;23.110;2023-04-19T02:01:11;96139.56;;;9.54;100.00
39363;BME280;25088;43.238;23.110;2023-04-19T02:03:38;96141.69;;;9.47;100.00
39363;BME280;25088;43.238;23.110;2023-04-19T02:06:03;96140.38;;;9.54;100.00
39363;BME280;25088;43.238;23.110;2023-04-19T02:08:29;96141.78;;;9.57;100.00
39363;BME280;25088;43.238;23.110;2023-04-19T02:10:54;96111.66;;;9.42;100.00
39363;BME280;25088;43.238;23.110;2023-04-19T02:13:20;96131.72;;;9.63;100.00
39363;BME280;25088;43.238;23.110;2023-04-19T02:15:45;96135.28;;;9.63;100.00
39363;BME280;25088;43.238;23.110;2023-04-19T02:18:11;96137.53;;;9.71;100.00
39363;BME280;25088;43.238;23.110;2023-04-19T02:20:37;96121.06;;;9.56;100.00
39363;BME280;25088;43.238;23.110;2023-04-19T02:23:03;96131.53;;;9.74;100.00
39363;BME280;25088;43.238;23.110;2023-04-19T02:25:28;96138.91;;;9.74;100.00
39363;BME280;25088;43.238;23.110;2023-04-19T02:27:54;96133.50;;;9.79;100.00
39363;BME280;25088;43.238;23.110;2023-04-19T02:30:19;96103.47;;;9.74;100.00
39363;BME280;25088;43.238;23.110;2023-04-19T02:32:47;96131.94;;;9.88;100.00
39363;BME280;25088;43.238;23.110;2023-04-19T02:35:12;96132.69;;;9.78;100.00
39363;BME280;25088;43.238;23.110;2023-04-19T02:37:38;96124.91;;;9.60;100.00
39363;BME280;25088;43.238;23.110;2023-04-19T02:40:03;96136.88;;;9.59;100.00
39363;BME280;25088;43.238;23.110;2023-04-19T02:42:29;96132.00;;;9.61;100.00
39363;BME280;25088;43.238;23.110;2023-04-19T02:44:55;96137.81;;;9.70;100.00
39363;BME280;25088;43.238;23.110;2023-04-19T02:47:20;96127.97;;;9.69;100.00
39363;BME280;25088;43.238;23.110;2023-04-19T02:49:46;96135.66;;;9.77;100.00
39363;BME280;25088;43.238;23.110;2023-04-19T02:52:11;96135.44;;;9.83;100.00
39363;BME280;25088;43.238;23.110;2023-04-19T02:54:36;96126.75;;;9.87;100.00
39363;BME280;25088;43.238;23.110;2023-04-19T02:57:02;96129.53;;;9.92;100.00
39363;BME280;25088;43.238;23.110;2023-04-19T02:59:27;96129.78;;;9.90;100.00
39363;BME280;25088;43.238;23.110;2023-04-19T03:01:53;96130.34;;;9.92;100.00
39363;BME280;25088;43.238;23.110;2023-04-19T03:04:18;96113.47;;;9.95;100.00
39363;BME280;25088;43.238;23.110;2023-04-19T03:06:44;96121.13;;;10.03;100.00
39363;BME280;25088;43.238;23.110;2023-04-19T03:09:09;96124.19;;;10.07;100.00
39363;BME280;25088;43.238;23.110;2023-04-19T03:11:34;96121.06;;;9.93;100.00
39363;BME280;25088;43.238;23.110;2023-04-19T03:14:01;96121.69;;;10.00;100.00
39363;BME280;25088;43.238;23.110;2023-04-19T03:16:26;96125.31;;;10.11;100.00
39363;BME280;25088;43.238;23.110;2023-04-19T03:18:54;96131.06;;;10.15;100.00
39363;BME280;25088;43.238;23.110;2023-04-19T03:21:20;96119.03;;;10.10;100.00
39363;BME280;25088;43.238;23.110;2023-04-19T03:23:45;96114.13;;;10.13;100.00
39363;BME280;25088;43.238;23.110;2023-04-19T03:26:11;96121.22;;;10.14;100.00
39363;BME280;25088;43.238;23.110;2023-04-19T03:28:36;96117.16;;;10.16;100.00
39363;BME280;25088;43.238;23.110;2023-04-19T03:31:02;96122.84;;;10.09;100.00
39363;BME280;25088;43.238;23.110;2023-04-19T03:33:27;96124.41;;;10.00;100.00
39363;BME280;25088;43.238;23.110;2023-04-19T03:35:53;96126.00;;;9.96;100.00
39363;BME280;25088;43.238;23.110;2023-04-19T03:38:18;96115.50;;;9.78;100.00
39363;BME280;25088;43.238;23.110;2023-04-19T03:40:43;96128.31;;;9.77;100.00
39363;BME280;25088;43.238;23.110;2023-04-19T03:43:09;96118.97;;;9.68;100.00
39363;BME280;25088;43.238;23.110;2023-04-19T03:45:34;96126.25;;;9.57;100.00
39363;BME280;25088;43.238;23.110;2023-04-19T03:48:00;96129.50;;;9.59;100.00
39363;BME280;25088;43.238;23.110;2023-04-19T03:50:25;96129.50;;;9.59;100.00
39363;BME280;25088;43.238;23.110;2023-04-19T03:52:51;96128.16;;;9.57;100.00
39363;BME280;25088;43.238;23.110;2023-04-19T03:55:16;96124.38;;;9.63;100.00
39363;BME280;25088;43.238;23.110;2023-04-19T03:57:42;96122.50;;;9.69;100.00
39363;BME280;25088;43.238;23.110;2023-04-19T04:00:07;96123.88;;;9.66;100.00
39363;BME280;25088;43.238;23.110;2023-04-19T04:02:36;96125.00;;;9.70;100.00
39363;BME280;25088;43.238;23.110;2023-04-19T04:05:02;96131.50;;;9.69;100.00
39363;BME280;25088;43.238;23.110;2023-04-19T04:07:28;96118.72;;;9.70;100.00
39363;BME280;25088;43.238;23.110;2023-04-19T04:09:53;96121.22;;;9.76;100.00
39363;BME280;25088;43.238;23.110;2023-04-19T04:12:19;96118.19;;;9.73;100.00
39363;BME280;25088;43.238;23.110;2023-04-19T04:14:44;96120.91;;;9.73;100.00
39363;BME280;25088;43.238;23.110;2023-04-19T04:17:10;96123.13;;;9.76;100.00
39363;BME280;25088;43.238;23.110;2023-04-19T04:19:35;96120.94;;;9.78;100.00
39363;BME280;25088;43.238;23.110;2023-04-19T04:22:01;96099.28;;;9.61;100.00
39363;BME280;25088;43.238;23.110;2023-04-19T04:24:26;96123.41;;;9.79;100.00
39363;BME280;25088;43.238;23.110;2023-04-19T04:26:52;96128.94;;;9.84;100.00
39363;BME280;25088;43.238;23.110;2023-04-19T04:29:17;96132.22;;;9.87;100.00
39363;BME280;25088;43.238;23.110;2023-04-19T04:31:43;96127.81;;;9.80;100.00
39363;BME280;25088;43.238;23.110;2023-04-19T04:34:08;96131.94;;;9.88;100.00
39363;BME280;25088;43.238;23.110;2023-04-19T04:36:34;96132.47;;;9.85;100.00
39363;BME280;25088;43.238;23.110;2023-04-19T04:39:02;96126.25;;;9.90;100.00
39363;BME280;25088;43.238;23.110;2023-04-19T04:41:28;96122.97;;;9.93;100.00
39363;BME280;25088;43.238;23.110;2023-04-19T04:43:56;96133.06;;;9.92;100.00
39363;BME280;25088;43.238;23.110;2023-04-19T04:46:23;96126.75;;;9.87;100.00
39363;BME280;25088;43.238;23.110;2023-04-19T04:48:48;96130.03;;;9.89;100.00
39363;BME280;25088;43.238;23.110;2023-04-19T04:51:13;96130.91;;;9.99;100.00
39363;BME280;25088;43.238;23.110;2023-04-19T04:53:39;96130.13;;;10.04;100.00
39363;BME280;25088;43.238;23.110;2023-04-19T04:56:05;96125.81;;;10.08;100.00
39363;BME280;25088;43.238;23.110;2023-04-19T04:58:30;96136.22;;;10.11;100.00
39363;BME280;25088;43.238;23.110;2023-04-19T05:00:55;96129.94;;;10.10;100.00
39363;BME280;25088;43.238;23.110;2023-04-19T05:03:21;96124.44;;;10.05;100.00
39363;BME280;25088;43.238;23.110;2023-04-19T05:05:46;96129.91;;;10.05;100.00
39363;BME280;25088;43.238;23.110;2023-04-19T05:08:12;96116.25;;;10.05;100.00
39363;BME280;25088;43.238;23.110;2023-04-19T05:10:37;96131.34;;;10.18;100.00
39363;BME280;25088;43.238;23.110;2023-04-19T05:13:02;96119.63;;;10.23;100.00
39363;BME280;25088;43.238;23.110;2023-04-19T05:15:28;96124.78;;;10.19;100.00
39363;BME280;25088;43.238;23.110;2023-04-19T05:17:53;96128.09;;;10.21;100.00
39363;BME280;25088;43.238;23.110;2023-04-19T05:20:19;96121.78;;;10.16;100.00
39363;BME280;25088;43.238;23.110;2023-04-19T05:22:45;96119.22;;;10.04;100.00
39363;BME280;25088;43.238;23.110;2023-04-19T05:25:11;96123.44;;;10.22;100.00
39363;BME280;25088;43.238;23.110;2023-04-19T05:27:36;96122.19;;;10.29;100.00
39363;BME280;25088;43.238;23.110;2023-04-19T05:30:03;96127.66;;;10.34;100.00
39363;BME280;25088;43.238;23.110;2023-04-19T05:32:29;96132.31;;;10.39;100.00
39363;BME280;25088;43.238;23.110;2023-04-19T05:34:55;96135.59;;;10.41;100.00
39363;BME280;25088;43.238;23.110;2023-04-19T05:37:20;96135.09;;;10.44;100.00
39363;BME280;25088;43.238;23.110;2023-04-19T05:39:45;96142.25;;;10.55;100.00
39363;BME280;25088;43.238;23.110;2023-04-19T05:42:11;96128.66;;;10.66;100.00
39363;BME280;25088;43.238;23.110;2023-04-19T05:44:36;96136.88;;;10.76;100.00
39363;BME280;25088;43.238;23.110;2023-04-19T05:47:02;96141.28;;;10.87;100.00
39363;BME280;25088;43.238;23.110;2023-04-19T05:49:27;96133.94;;;10.93;100.00
39363;BME280;25088;43.238;23.110;2023-04-19T05:51:53;96139.19;;;11.09;100.00
39363;BME280;25088;43.238;23.110;2023-04-19T05:54:19;96129.66;;;11.22;100.00
39363;BME280;25088;43.238;23.110;2023-04-19T05:56:45;96116.28;;;11.21;100.00
39363;BME280;25088;43.238;23.110;2023-04-19T05:59:10;96130.78;;;11.42;100.00
39363;BME280;25088;43.238;23.110;2023-04-19T06:01:37;96131.63;;;11.47;100.00
39363;BME280;25088;43.238;23.110;2023-04-19T06:04:03;96134.09;;;11.49;100.00
39363;BME280;25088;43.238;23.110;2023-04-19T06:06:28;96131.09;;;11.55;100.00
39363;BME280;25088;43.238;23.110;2023-04-19T06:08:53;96127.56;;;11.75;100.00
39363;BME280;25088;43.238;23.110;2023-04-19T06:11:19;96127.88;;;11.89;99.39
39363;BME280;25088;43.238;23.110;2023-04-19T06:13:45;96132.22;;;12.05;96.11
39363;BME280;25088;43.238;23.110;2023-04-19T06:16:10;96136.31;;;12.23;96.27
39363;BME280;25088;43.238;23.110;2023-04-19T06:18:36;96128.09;;;12.38;92.87
39363;BME280;25088;43.238;23.110;2023-04-19T06:21:01;96136.50;;;12.57;89.86
39363;BME280;25088;43.238;23.110;2023-04-19T06:23:27;96124.94;;;12.81;90.91
39363;BME280;25088;43.238;23.110;2023-04-19T06:25:52;96124.00;;;13.06;89.25
39363;BME280;25088;43.238;23.110;2023-04-19T06:28:18;96128.59;;;13.26;86.22
39363;BME280;25088;43.238;23.110;2023-04-19T06:30:44;96104.16;;;13.34;88.24
39363;BME280;25088;43.238;23.110;2023-04-19T06:33:09;96132.19;;;13.65;83.29
39363;BME280;25088;43.238;23.110;2023-04-19T06:35:35;96135.69;;;13.76;79.08
39363;BME280;25088;43.238;23.110;2023-04-19T06:38:00;96121.66;;;13.83;77.64
39363;BME280;25088;43.238;23.110;2023-04-19T06:40:26;96130.97;;;14.16;77.91
39363;BME280;25088;43.238;23.110;2023-04-19T06:42:53;96124.81;;;14.29;79.87
39363;BME280;25088;43.238;23.110;2023-04-19T06:45:19;96125.13;;;14.57;76.10
39363;BME280;25088;43.238;23.110;2023-04-19T06:47:44;96123.91;;;14.68;74.20
39363;BME280;25088;43.238;23.110;2023-04-19T06:50:10;96131.69;;;14.85;75.57
39363;BME280;25088;43.238;23.110;2023-04-19T06:52:35;96133.13;;;15.01;75.45
39363;BME280;25088;43.238;23.110;2023-04-19T06:55:01;96120.06;;;15.55;73.08
39363;BME280;25088;43.238;23.110;2023-04-19T06:57:26;96134.00;;;15.82;68.33
39363;BME280;25088;43.238;23.110;2023-04-19T06:59:53;96128.38;;;16.39;65.62
39363;BME280;25088;43.238;23.110;2023-04-19T07:02:19;96127.06;;;16.96;63.49
39363;BME280;25088;43.238;23.110;2023-04-19T07:04:45;96131.72;;;17.10;61.40
39363;BME280;25088;43.238;23.110;2023-04-19T07:07:11;96118.25;;;17.08;64.00
39363;BME280;25088;43.238;23.110;2023-04-19T07:09:37;96118.16;;;16.72;64.61
39363;BME280;25088;43.238;23.110;2023-04-19T07:12:02;96117.28;;;16.58;64.87
39363;BME280;25088;43.238;23.110;2023-04-19T07:14:28;96126.59;;;16.29;65.42
39363;BME280;25088;43.238;23.110;2023-04-19T07:16:53;96128.91;;;15.89;69.18
39363;BME280;25088;43.238;23.110;2023-04-19T07:19:19;96130.47;;;15.39;69.44
39363;BME280;25088;43.238;23.110;2023-04-19T07:21:45;96134.00;;;14.96;71.70
39363;BME280;25088;43.238;23.110;2023-04-19T07:24:10;96132.00;;;14.83;72.13
39363;BME280;25088;43.238;23.110;2023-04-19T07:26:36;96127.00;;;14.85;71.20
39363;BME280;25088;43.238;23.110;2023-04-19T07:29:01;96138.69;;;14.96;69.73
39363;BME280;25088;43.238;23.110;2023-04-19T07:31:27;96138.41;;;14.97;70.83
39363;BME280;25088;43.238;23.110;2023-04-19T07:33:53;96131.25;;;14.96;69.95
39363;BME280;25088;43.238;23.110;2023-04-19T07:36:19;96128.94;;;15.09;67.89
39363;BME280;25088;43.238;23.110;2023-04-19T07:38:45;96137.28;;;15.60;66.71
39363;BME280;25088;43.238;23.110;2023-04-19T07:41:11;96134.06;;;16.28;65.16
39363;BME280;25088;43.238;23.110;2023-04-19T07:43:36;96130.13;;;16.81;62.19
39363;BME280;25088;43.238;23.110;2023-04-19T07:46:11;96121.47;;;17.51;58.63
39363;BME280;25088;43.238;23.110;2023-04-19T07:48:38;96126.31;;;17.18;58.61
39363;BME280;25088;43.238;23.110;2023-04-19T07:51:11;96125.66;;;16.52;60.57
39363;BME280;25088;43.238;23.110;2023-04-19T07:53:38;96131.50;;;15.99;63.52
39363;BME280;25088;43.238;23.110;2023-04-19T07:56:07;96130.25;;;15.92;64.85
39363;BME280;25088;43.238;23.110;2023-04-19T07:58:34;96129.38;;;15.77;65.23
39363;BME280;25088;43.238;23.110;2023-04-19T08:00:59;96133.72;;;15.60;66.87
39363;BME280;25088;43.238;23.110;2023-04-19T08:03:25;96132.31;;;15.43;68.68
39363;BME280;25088;43.238;23.110;2023-04-19T08:05:51;96114.53;;;15.17;72.08
39363;BME280;25088;43.238;23.110;2023-04-19T08:08:17;96114.84;;;15.34;70.38
39363;BME280;25088;43.238;23.110;2023-04-19T08:10:42;96124.84;;;15.87;68.93
39363;BME280;25088;43.238;23.110;2023-04-19T08:13:08;96116.28;;;16.21;66.77
39363;BME280;25088;43.238;23.110;2023-04-19T08:15:33;96103.25;;;16.87;63.79
39363;BME280;25088;43.238;23.110;2023-04-19T08:17:59;96108.00;;;18.08;58.74
39363;BME280;25088;43.238;23.110;2023-04-19T08:20:25;96088.59;;;19.33;54.83
39363;BME280;25088;43.238;23.110;2023-04-19T08:22:51;96089.31;;;20.51;50.89
39363;BME280;25088;43.238;23.110;2023-04-19T08:25:17;96092.28;;;19.77;52.26
39363;BME280;25088;43.238;23.110;2023-04-19T08:27:42;96093.03;;;19.43;52.81
39363;BME280;25088;43.238;23.110;2023-04-19T08:30:08;96085.19;;;20.57;49.60
39363;BME280;25088;43.238;23.110;2023-04-19T08:32:34;96089.63;;;21.35;50.23
39363;BME280;25088;43.238;23.110;2023-04-19T08:35:00;96081.41;;;21.89;48.68
39363;BME280;25088;43.238;23.110;2023-04-19T08:37:26;96089.38;;;21.19;46.41
39363;BME280;25088;43.238;23.110;2023-04-19T08:39:51;96081.25;;;20.67;47.81
39363;BME280;25088;43.238;23.110;2023-04-19T08:42:17;96071.44;;;19.71;50.20
39363;BME280;25088;43.238;23.110;2023-04-19T08:44:44;96095.41;;;18.70;51.44
39363;BME280;25088;43.238;23.110;2023-04-19T08:47:10;96087.22;;;18.33;51.61
39363;BME280;25088;43.238;23.110;2023-04-19T08:49:38;96082.47;;;18.03;56.16
39363;BME280;25088;43.238;23.110;2023-04-19T08:52:05;96092.38;;;17.68;55.77
39363;BME280;25088;43.238;23.110;2023-04-19T08:54:31;96077.09;;;17.62;53.04
39363;BME280;25088;43.238;23.110;2023-04-19T08:57:00;96084.94;;;17.18;54.04
39363;BME280;25088;43.238;23.110;2023-04-19T08:59:26;96073.69;;;18.01;52.91
39363;BME280;25088;43.238;23.110;2023-04-19T09:01:53;96071.50;;;18.74;49.98
39363;BME280;25088;43.238;23.110;2023-04-19T09:04:20;96052.81;;;19.45;48.60
39363;BME280;25088;43.238;23.110;2023-04-19T09:06:46;96045.91;;;20.47;49.03
39363;BME280;25088;43.238;23.110;2023-04-19T09:09:17;96062.66;;;21.06;43.37
39363;BME280;25088;43.238;23.110;2023-04-19T09:11:43;96064.75;;;19.89;44.42
39363;BME280;25088;43.238;23.110;2023-04-19T09:14:11;96046.09;;;20.50;45.58
39363;BME280;25088;43.238;23.110;2023-04-19T09:16:36;96054.78;;;20.78;43.75
39363;BME280;25088;43.238;23.110;2023-04-19T09:19:03;96049.72;;;19.99;45.26
39363;BME280;25088;43.238;23.110;2023-04-19T09:21:30;96060.28;;;19.27;48.29
39363;BME280;25088;43.238;23.110;2023-04-19T09:23:56;96056.69;;;19.27;47.28
39363;BME280;25088;43.238;23.110;2023-04-19T09:26:22;96048.94;;;19.63;46.85
39363;BME280;25088;43.238;23.110;2023-04-19T09:29:04;96053.66;;;20.06;45.28
39363;BME280;25088;43.238;23.110;2023-04-19T09:31:34;96046.41;;;20.40;42.70
39363;BME280;25088;43.238;23.110;2023-04-19T09:34:16;96051.16;;;20.86;43.20
39363;BME280;25088;43.238;23.110;2023-04-19T09:36:43;96034.91;;;21.06;44.00
39363;BME280;25088;43.238;23.110;2023-04-19T09:39:09;96045.97;;;20.12;44.49
39363;BME280;25088;43.238;23.110;2023-04-19T09:41:49;96052.16;;;19.31;46.50
39363;BME280;25088;43.238;23.110;2023-04-19T09:44:15;96053.03;;;18.92;48.05
39363;BME280;25088;43.238;23.110;2023-04-19T09:46:41;96051.66;;;18.72;48.46
39363;BME280;25088;43.238;23.110;2023-04-19T09:51:44;96031.41;;;19.02;47.45
39363;BME280;25088;43.238;23.110;2023-04-19T09:54:11;96045.78;;;19.39;46.95
39363;BME280;25088;43.238;23.110;2023-04-19T09:56:38;96046.13;;;20.24;46.54
39363;BME280;25088;43.238;23.110;2023-04-19T09:59:04;96042.22;;;19.30;48.09
39363;BME280;25088;43.238;23.110;2023-04-19T10:01:42;96037.84;;;19.63;47.98
39363;BME280;25088;43.238;23.110;2023-04-19T10:04:09;96043.53;;;20.10;46.80
39363;BME280;25088;43.238;23.110;2023-04-19T10:06:38;96042.22;;;21.10;46.81
39363;BME280;25088;43.238;23.110;2023-04-19T10:09:04;96006.91;;;20.90;45.76
39363;BME280;25088;43.238;23.110;2023-04-19T10:11:34;96033.66;;;21.24;44.27
39363;BME280;25088;43.238;23.110;2023-04-19T10:14:07;96040.22;;;21.20;44.32
39363;BME280;25088;43.238;23.110;2023-04-19T10:16:34;96027.25;;;21.95;42.03
39363;BME280;25088;43.238;23.110;2023-04-19T10:19:02;96030.31;;;22.93;40.87
39363;BME280;25088;43.238;23.110;2023-04-19T10:21:28;96024.47;;;22.86;39.97
39363;BME280;25088;43.238;23.110;2023-04-19T10:23:55;96040.97;;;22.33;43.61
39363;BME280;25088;43.238;23.110;2023-04-19T10:26:21;96050.03;;;20.23;46.13
39363;BME280;25088;43.238;23.110;2023-04-19T10:28:47;96060.28;;;18.79;49.12
39363;BME280;25088;43.238;23.110;2023-04-19T10:31:13;96078.13;;;16.74;58.10
39363;BME280;25088;43.238;23.110;2023-04-19T10:33:39;96074.41;;;14.73;68.77
39363;BME280;25088;43.238;23.110;2023-04-19T10:36:09;96089.91;;;13.71;77.71
39363;BME280;25088;43.238;23.110;2023-04-19T10:38:39;96090.75;;;13.67;85.20
39363;BME280;25088;43.238;23.110;2023-04-19T10:41:07;96092.19;;;13.15;91.21
39363;BME280;25088;43.238;23.110;2023-04-19T10:43:37;96099.00;;;12.68;98.77
39363;BME280;25088;43.238;23.110;2023-04-19T10:46:07;96090.03;;;12.32;100.00
39363;BME280;25088;43.238;23.110;2023-04-19T10:48:35;96084.34;;;12.03;100.00
39363;BME280;25088;43.238;23.110;2023-04-19T10:51:10;96104.06;;;11.95;100.00
39363;BME280;25088;43.238;23.110;2023-04-19T10:53:52;96090.13;;;11.86;100.00
39363;BME280;25088;43.238;23.110;2023-04-19T10:57:03;96106.19;;;11.52;100.00
39363;BME280;25088;43.238;23.110;2023-04-19T10:59:33;96102.91;;;11.39;100.00
39363;BME280;25088;43.238;23.110;2023-04-19T11:02:03;96099.06;;;11.25;100.00
39363;BME280;25088;43.238;23.110;2023-04-19T11:06:58;96100.94;;;11.09;100.00
39363;BME280;25088;43.238;23.110;2023-04-19T11:09:36;96102.28;;;11.02;100.00
39363;BME280;25088;43.238;23.110;2023-04-19T11:12:09;96089.97;;;10.94;100.00
39363;BME280;25088;43.238;23.110;2023-04-19T11:14:45;96095.69;;;10.93;100.00
39363;BME280;25088;43.238;23.110;2023-04-19T11:17:22;96104.44;;;10.90;100.00
39363;BME280;25088;43.238;23.110;2023-04-19T11:22:18;96103.56;;;10.79;100.00
39363;BME280;25088;43.238;23.110;2023-04-19T11:24:48;96097.53;;;10.72;100.00
39363;BME280;25088;43.238;23.110;2023-04-19T11:27:14;96090.72;;;10.69;100.00
39363;BME280;25088;43.238;23.110;2023-04-19T11:29:39;96106.03;;;10.80;100.00
39363;BME280;25088;43.238;23.110;2023-04-19T11:32:05;96105.25;;;10.85;100.00
39363;BME280;25088;43.238;23.110;2023-04-19T11:34:38;96105.25;;;10.90;100.00
39363;BME280;25088;43.238;23.110;2023-04-19T11:37:03;96092.63;;;10.74;100.00
39363;BME280;25088;43.238;23.110;2023-04-19T11:39:29;96092.94;;;10.87;100.00
39363;BME280;25088;43.238;23.110;2023-04-19T11:41:55;96091.63;;;10.95;100.00
39363;BME280;25088;43.238;23.110;2023-04-19T11:44:20;96093.00;;;11.03;100.00
39363;BME280;25088;43.238;23.110;2023-04-19T11:47:05;96085.91;;;11.07;100.00
39363;BME280;25088;43.238;23.110;2023-04-19T11:49:32;96093.03;;;11.28;100.00
39363;BME280;25088;43.238;23.110;2023-04-19T11:52:02;96079.44;;;11.54;100.00
39363;BME280;25088;43.238;23.110;2023-04-19T11:54:29;96088.16;;;12.07;100.00
39363;BME280;25088;43.238;23.110;2023-04-19T11:56:57;96091.34;;;12.55;100.00
39363;BME280;25088;43.238;23.110;2023-04-19T11:59:23;96077.97;;;13.13;98.22
39363;BME280;25088;43.238;23.110;2023-04-19T12:01:48;96067.31;;;14.14;94.53
39363;BME280;25088;43.238;23.110;2023-04-19T12:04:16;96068.53;;;15.22;81.65
39363;BME280;25088;43.238;23.110;2023-04-19T12:06:42;96062.44;;;15.82;69.81
39363;BME280;25088;43.238;23.110;2023-04-19T12:09:07;96051.25;;;15.92;67.56
39363;BME280;25088;43.238;23.110;2023-04-19T12:11:44;96052.00;;;16.12;68.15
39363;BME280;25088;43.238;23.110;2023-04-19T12:14:14;96056.84;;;16.47;64.73
39363;BME280;25088;43.238;23.110;2023-04-19T12:16:40;96047.66;;;16.66;68.80
39363;BME280;25088;43.238;23.110;2023-04-19T12:19:16;96034.91;;;16.70;65.84
39363;BME280;25088;43.238;23.110;2023-04-19T12:21:43;96053.41;;;16.83;65.66
39363;BME280;25088;43.238;23.110;2023-04-19T12:24:09;96041.16;;;16.75;66.99
39363;BME280;25088;43.238;23.110;2023-04-19T12:26:35;96044.25;;;17.24;68.21
39363;BME280;25088;43.238;23.110;2023-04-19T12:29:02;96039.47;;;18.11;64.70
39363;BME280;25088;43.238;23.110;2023-04-19T12:31:29;96038.03;;;18.84;58.03
39363;BME280;25088;43.238;23.110;2023-04-19T12:33:58;96022.06;;;19.81;54.80
39363;BME280;25088;43.238;23.110;2023-04-19T12:36:23;96009.53;;;20.86;53.90
39363;BME280;25088;43.238;23.110;2023-04-19T12:38:49;96008.81;;;21.90;50.22
39363;BME280;25088;43.238;23.110;2023-04-19T12:41:15;96004.53;;;22.84;47.12
39363;BME280;25088;43.238;23.110;2023-04-19T12:43:40;96002.22;;;23.10;45.99
39363;BME280;25088;43.238;23.110;2023-04-19T12:46:06;96007.53;;;22.79;44.58
39363;BME280;25088;43.238;23.110;2023-04-19T12:48:31;96005.53;;;21.55;46.58
39363;BME280;25088;43.238;23.110;2023-04-19T12:50:57;96012.81;;;20.50;46.77
39363;BME280;25088;43.238;23.110;2023-04-19T12:53:22;96009.84;;;19.74;48.36